Terminal Aerodrome Forecast
Issued by NWS

Home | Current Version | Previous Version | Text Only | Print | Product List | Glossary On
Versions: 1 2 3 4 5 6 7 8 9 10 11 12 13 14 15 16 17 18 19 20 21 22 23
000
FTAK31 PAJN 272326
TAFAJN
TAF
PAJN 272326Z 2800/2824 VRB05KT P6SM -RA SCT025 BKN040 OVC060
      WS020/11025KT
      TEMPO 2800/2804 09012KT 5SM -RA BR OVC025
     FM280400 11008KT 6SM -SHRA BR SCT025 OVC035
     FM281100 09005KT P6SM VCSH OVC045
     FM282000 12008KT P6SM VCSH BKN050=

USA.gov is the U.S. government's official web portal to all federal, state and local government web resources and services.